Time;durP1;ratioP1;P1;durP2;ratioP2;P2;SDS_P1;SDS_P2;PMS_P1;PMS_P2;Temp;Humidity;BMP_temperature;BMP_pressure;BME280_temperature;BME280_humidity;BME280_pressure;Samples;Min_cycle;Max_cycle;Signal;HPM_P1;HPM_P2
2021/12/10 00:00:28;;;;;;;63.40;20.52;;;4.80;99.90;;;;;;5116623;28;20115;-74
2021/12/10 00:02:54;;;;;;;63.35;19.25;;;4.80;99.90;;;;;;5115960;28;20508;-74
2021/12/10 00:05:31;;;;;;;69.45;21.35;;;4.80;99.90;;;;;;5115460;28;20043;-75
2021/12/10 00:07:58;;;;;;;72.60;21.17;;;4.90;99.90;;;;;;5116769;28;20321;-75
2021/12/10 00:10:30;;;;;;;73.10;21.75;;;4.90;99.90;;;;;;5116525;28;20364;-74
2021/12/10 00:12:56;;;;;;;69.25;20.33;;;4.90;99.90;;;;;;5098036;28;20047;-74
2021/12/10 00:15:25;;;;;;;68.25;19.23;;;4.90;99.90;;;;;;5097966;28;20046;-74
2021/12/10 00:17:52;;;;;;;69.22;22.27;;;4.90;99.90;;;;;;5098025;28;20047;-75
2021/12/10 00:57:09;;;;;;;65.55;19.83;;;4.80;99.90;;;;;;5291503;22;20060;-75
2021/12/10 00:59:36;;;;;;;55.88;19.60;;;4.70;99.90;;;;;;5050328;28;20049;-75
2021/12/10 01:02:04;;;;;;;56.28;18.20;;;4.70;99.90;;;;;;5052702;28;20045;-76
2021/12/10 01:04:34;;;;;;;56.30;17.52;;;4.70;99.90;;;;;;5034217;28;20481;-75
2021/12/10 01:07:03;;;;;;;50.08;16.75;;;4.70;99.90;;;;;;5053154;28;20053;-75
2021/12/10 01:09:34;;;;;;;54.40;17.08;;;4.70;99.90;;;;;;5049548;28;20675;-76
2021/12/10 01:12:10;;;;;;;43.60;16.85;;;4.80;99.90;;;;;;5035065;28;20501;-76
2021/12/10 01:26:07;;;;;;;56.88;17.13;;;4.60;99.90;;;;;;5030627;28;20450;-75
2021/12/10 01:28:34;;;;;;;45.80;17.20;;;4.60;99.90;;;;;;5044827;28;20134;-76
2021/12/10 01:30:59;;;;;;;52.28;18.30;;;4.60;99.90;;;;;;5051374;28;20405;-75
2021/12/10 01:33:25;;;;;;;48.60;15.90;;;4.50;99.90;;;;;;5034136;28;20040;-75
2021/12/10 01:35:56;;;;;;;53.55;17.23;;;4.50;99.90;;;;;;5049905;28;20421;-74
2021/12/10 01:38:23;;;;;;;48.80;16.52;;;4.50;99.90;;;;;;5052362;28;20642;-74
2021/12/10 01:40:55;;;;;;;60.55;16.55;;;4.60;99.90;;;;;;5032298;28;20401;-75
2021/12/10 01:43:23;;;;;;;42.03;15.27;;;4.60;99.90;;;;;;5052260;28;20080;-74
2021/12/10 01:45:54;;;;;;;42.50;15.20;;;4.60;99.90;;;;;;5049494;28;20505;-75
2021/12/10 01:48:28;;;;;;;45.90;15.93;;;4.50;99.90;;;;;;5052451;28;20106;-74
2021/12/10 01:50:56;;;;;;;54.80;17.10;;;4.50;99.90;;;;;;5033309;28;20117;-74
2021/12/10 01:53:25;;;;;;;44.55;16.02;;;4.50;99.90;;;;;;5051907;28;20439;-74
2021/12/10 01:55:53;;;;;;;46.08;14.75;;;4.50;99.90;;;;;;5035788;28;20053;-73
2021/12/10 01:58:22;;;;;;;45.88;14.65;;;4.60;99.90;;;;;;5031842;28;20053;-73
2021/12/10 02:00:54;;;;;;;43.78;14.57;;;4.60;99.90;;;;;;5039412;28;20140;-73
2021/12/10 02:03:20;;;;;;;44.22;14.05;;;4.60;99.90;;;;;;5051993;28;20428;-73
2021/12/10 02:05:46;;;;;;;47.30;14.97;;;4.60;99.90;;;;;;5050804;28;20440;-74
2021/12/10 02:08:12;;;;;;;38.13;13.95;;;4.40;99.90;;;;;;5050540;28;20045;-74
2021/12/10 02:10:38;;;;;;;40.08;13.98;;;4.50;99.90;;;;;;5049678;28;20052;-74
2021/12/10 02:13:04;;;;;;;48.22;15.18;;;4.50;99.90;;;;;;5034069;28;20124;-74
2021/12/10 02:15:30;;;;;;;42.40;14.13;;;4.50;99.90;;;;;;5017167;28;20044;-74
2021/12/10 02:17:59;;;;;;;42.10;13.77;;;4.50;99.90;;;;;;5051179;28;20041;-74
2021/12/10 02:20:32;;;;;;;36.47;14.13;;;4.50;99.90;;;;;;5051011;28;20105;-74
2021/12/10 02:22:59;;;;;;;37.85;13.73;;;4.50;99.90;;;;;;5033309;28;20049;-74
2021/12/10 02:25:26;;;;;;;;;;;4.50;99.90;;;;;;5048812;28;20041;-73
2021/12/10 02:27:52;;;;;;;;;;;4.50;99.90;;;;;;5050402;28;19959;-74
2021/12/10 02:30:20;;;;;;;41.03;13.07;;;4.50;99.90;;;;;;5051834;28;19966;-74
2021/12/10 02:32:46;;;;;;;34.20;10.95;;;4.60;99.90;;;;;;5050914;28;20045;-73
2021/12/10 02:35:14;;;;;;;35.15;11.90;;;4.50;99.90;;;;;;5039669;28;20124;-73
2021/12/10 02:37:43;;;;;;;46.00;13.52;;;4.50;99.90;;;;;;5050885;28;20191;-74
2021/12/10 02:40:10;;;;;;;46.20;13.73;;;4.60;99.90;;;;;;5048397;28;20055;-75
2021/12/10 02:42:36;;;;;;;42.83;14.38;;;4.50;99.90;;;;;;5034439;28;20057;-74
2021/12/10 02:45:05;;;;;;;45.53;14.90;;;4.50;99.90;;;;;;5016394;28;20469;-74
2021/12/10 02:47:30;;;;;;;38.70;12.48;;;4.40;99.90;;;;;;5033731;28;20051;-75
2021/12/10 02:49:56;;;;;;;42.13;14.70;;;4.40;99.90;;;;;;5032625;28;20049;-75
2021/12/10 02:52:24;;;;;;;36.83;12.35;;;4.40;99.90;;;;;;5051712;28;20056;-74
2021/12/10 02:54:50;;;;;;;39.28;13.80;;;4.40;99.90;;;;;;5030893;28;20056;-75
2021/12/10 02:57:17;;;;;;;42.70;13.65;;;4.40;99.90;;;;;;5051058;28;20061;-74
2021/12/10 02:59:43;;;;;;;41.63;14.32;;;4.40;99.90;;;;;;5050157;28;20049;-74
2021/12/10 03:02:14;;;;;;;45.35;15.45;;;4.40;99.90;;;;;;5033070;28;20052;-75
2021/12/10 03:04:41;;;;;;;39.83;14.07;;;4.40;99.90;;;;;;5049815;28;20116;-76
2021/12/10 03:07:13;;;;;;;40.15;14.68;;;4.40;99.90;;;;;;5051769;28;20136;-75
2021/12/10 03:09:42;;;;;;;43.88;14.75;;;4.30;99.90;;;;;;5053928;28;20087;-76
2021/12/10 03:12:08;;;;;;;39.00;14.15;;;4.30;99.90;;;;;;5053985;28;20123;-74
2021/12/10 03:14:37;;;;;;;41.60;14.80;;;4.30;99.90;;;;;;5054464;28;20052;-76
2021/12/10 03:17:08;;;;;;;38.75;14.20;;;4.30;99.90;;;;;;5033638;28;20045;-75
2021/12/10 03:19:34;;;;;;;48.83;13.38;;;4.30;99.90;;;;;;5040992;28;20052;-74
2021/12/10 03:22:00;;;;;;;37.00;14.18;;;4.20;99.90;;;;;;5055093;28;20048;-75
2021/12/10 03:24:27;;;;;;;36.47;15.00;;;4.20;99.90;;;;;;5053107;28;20047;-74
2021/12/10 03:26:57;;;;;;;39.08;14.48;;;4.20;99.90;;;;;;5055100;28;20382;-75
2021/12/10 03:29:25;;;;;;;35.13;12.73;;;4.20;99.90;;;;;;5055548;28;20045;-73
2021/12/10 03:31:52;;;;;;;41.85;14.82;;;4.20;99.90;;;;;;5054215;28;20352;-74
2021/12/10 03:34:18;;;;;;;34.85;13.38;;;4.20;99.90;;;;;;5053857;28;20056;-74
2021/12/10 03:36:46;;;;;;;35.13;14.45;;;4.20;99.90;;;;;;5055629;28;20077;-74
2021/12/10 03:39:19;;;;;;;35.40;13.30;;;4.20;99.90;;;;;;5054376;28;20396;-73
2021/12/10 03:41:45;;;;;;;39.97;14.95;;;4.20;99.90;;;;;;5058731;28;20574;-73
2021/12/10 03:44:12;;;;;;;37.42;14.25;;;4.20;99.90;;;;;;5056216;28;20045;-74
2021/12/10 03:46:38;;;;;;;38.22;14.52;;;4.20;99.90;;;;;;5055853;28;20112;-74
2021/12/10 03:49:09;;;;;;;37.83;13.73;;;4.20;99.90;;;;;;5053933;28;20045;-73
2021/12/10 03:51:36;;;;;;;40.33;14.45;;;4.20;99.90;;;;;;5038240;28;20147;-73
2021/12/10 03:54:05;;;;;;;43.00;14.50;;;4.20;99.90;;;;;;5053966;28;20460;-74
2021/12/10 03:56:33;;;;;;;36.33;13.50;;;4.10;99.90;;;;;;5053704;28;20076;-73
2021/12/10 03:59:02;;;;;;;33.78;12.75;;;4.00;99.90;;;;;;5053645;28;20409;-72
2021/12/10 04:01:31;;;;;;;45.50;15.02;;;4.00;99.90;;;;;;5055279;28;20455;-73
2021/12/10 04:03:59;;;;;;;44.53;14.90;;;3.90;99.90;;;;;;5055071;28;20115;-75
2021/12/10 04:06:25;;;;;;;48.10;16.35;;;3.80;99.90;;;;;;5054522;28;20124;-74
2021/12/10 04:08:52;;;;;;;46.00;15.30;;;3.70;99.90;;;;;;5053722;28;20484;-73
2021/12/10 04:11:19;;;;;;;27.83;10.88;;;3.60;99.90;;;;;;5053253;28;20053;-75
2021/12/10 04:13:46;;;;;;;;;;;3.60;99.90;;;;;;5055312;28;20048;-74
2021/12/10 04:16:12;;;;;;;35.50;12.40;;;3.50;99.90;;;;;;5054609;28;20307;-73
2021/12/10 04:18:39;;;;;;;31.90;9.82;;;3.40;99.90;;;;;;5055135;28;20049;-72
2021/12/10 04:21:07;;;;;;;35.55;12.18;;;3.40;99.90;;;;;;5053239;28;20045;-72
2021/12/10 04:23:33;;;;;;;42.60;15.23;;;3.30;99.90;;;;;;5056257;28;20166;-73
2021/12/10 04:25:59;;;;;;;35.67;12.65;;;3.20;99.90;;;;;;5054167;28;20496;-73
2021/12/10 04:28:26;;;;;;;37.03;13.70;;;3.20;99.90;;;;;;5055854;28;20056;-73
2021/12/10 04:30:52;;;;;;;45.27;14.70;;;3.20;99.90;;;;;;5037568;28;20584;-75
2021/12/10 04:33:22;;;;;;;38.35;12.57;;;3.30;99.90;;;;;;5055160;28;20107;-74
2021/12/10 04:35:51;;;;;;;39.47;12.85;;;3.20;99.90;;;;;;5056309;28;20612;-74
2021/12/10 04:38:18;;;;;;;34.63;11.40;;;3.20;99.90;;;;;;5055672;28;20056;-74
2021/12/10 04:40:47;;;;;;;49.22;14.77;;;3.10;99.90;;;;;;5054146;28;20049;-73
2021/12/10 04:43:19;;;;;;;28.15;10.15;;;3.10;99.90;;;;;;5055220;28;20088;-73
2021/12/10 04:45:45;;;;;;;40.60;13.95;;;3.00;99.90;;;;;;5055285;28;20045;-74
2021/12/10 04:48:11;;;;;;;41.17;12.13;;;2.90;99.90;;;;;;5054404;28;20045;-74
2021/12/10 04:50:37;;;;;;;41.42;14.63;;;3.00;99.90;;;;;;5052416;28;20052;-73
2021/12/10 04:53:06;;;;;;;42.00;13.95;;;2.90;99.90;;;;;;5052757;28;20049;-74
2021/12/10 04:55:32;;;;;;;35.03;13.77;;;2.70;99.90;;;;;;5052037;28;20056;-73
2021/12/10 04:57:58;;;;;;;40.30;15.10;;;2.80;99.90;;;;;;5050876;28;20417;-74
2021/12/10 05:00:29;;;;;;;36.33;11.70;;;2.80;99.90;;;;;;5051480;28;20118;-73
2021/12/10 05:03:00;;;;;;;36.20;13.73;;;2.90;99.90;;;;;;5035187;28;20041;-74
2021/12/10 05:05:27;;;;;;;38.38;14.73;;;2.80;99.90;;;;;;5051523;28;20040;-73
2021/12/10 05:07:53;;;;;;;43.85;16.10;;;2.70;99.90;;;;;;5052737;28;20067;-75
2021/12/10 05:10:19;;;;;;;42.33;13.98;;;2.70;99.90;;;;;;5049704;28;20080;-75
2021/12/10 05:12:45;;;;;;;43.78;15.40;;;2.70;99.90;;;;;;5052195;28;20414;-75
2021/12/10 05:15:19;;;;;;;34.42;12.85;;;2.70;99.90;;;;;;5050975;28;20132;-75
2021/12/10 05:17:45;;;;;;;32.20;10.15;;;2.60;99.90;;;;;;5048467;28;20049;-75
2021/12/10 05:20:16;;;;;;;29.13;10.80;;;2.60;99.90;;;;;;5048005;28;20076;-75
2021/12/10 05:22:45;;;;;;;35.67;13.93;;;2.60;99.90;;;;;;5051975;28;20048;-74
2021/12/10 05:25:11;;;;;;;29.45;11.65;;;2.70;99.90;;;;;;5050239;28;20053;-75
2021/12/10 05:27:38;;;;;;;25.25;9.52;;;2.60;99.90;;;;;;5052776;28;20041;-74
2021/12/10 05:30:07;;;;;;;25.15;9.73;;;2.60;99.90;;;;;;5051025;28;20045;-74
2021/12/10 05:32:34;;;;;;;31.58;11.68;;;2.60;99.90;;;;;;5052940;28;20140;-75
2021/12/10 05:35:00;;;;;;;41.92;14.13;;;2.80;99.90;;;;;;5051572;28;20444;-74
2021/12/10 05:37:26;;;;;;;39.17;14.38;;;2.60;99.90;;;;;;5051472;28;20055;-74
2021/12/10 05:39:53;;;;;;;43.25;13.38;;;2.60;99.90;;;;;;5050431;28;20427;-74
2021/12/10 05:42:19;;;;;;;38.15;14.30;;;2.50;99.90;;;;;;5051986;28;20052;-73
2021/12/10 05:44:45;;;;;;;38.97;14.02;;;2.40;99.90;;;;;;5034110;28;20068;-74
2021/12/10 05:47:10;;;;;;;37.35;13.63;;;2.30;99.90;;;;;;5050767;28;20485;-74
2021/12/10 05:49:37;;;;;;;42.20;13.73;;;2.30;99.90;;;;;;5050159;28;20080;-74
2021/12/10 05:52:04;;;;;;;41.10;13.30;;;2.20;99.90;;;;;;5052014;28;20068;-74
2021/12/10 05:54:30;;;;;;;36.38;12.45;;;2.30;99.90;;;;;;5046697;28;20041;-74
2021/12/10 05:56:56;;;;;;;39.75;11.48;;;2.30;99.90;;;;;;5015021;28;20046;-74
2021/12/10 05:59:21;;;;;;;26.85;9.73;;;2.30;99.90;;;;;;5029775;28;20166;-75
2021/12/10 06:01:47;;;;;;;44.42;12.60;;;2.30;99.90;;;;;;5048213;28;20053;-73
2021/12/10 06:04:13;;;;;;;35.70;12.70;;;2.30;99.90;;;;;;5051278;28;20041;-74
2021/12/10 06:06:39;;;;;;;29.48;11.18;;;2.20;99.90;;;;;;5034107;28;20103;-75
2021/12/10 06:09:07;;;;;;;26.50;8.20;;;2.10;99.90;;;;;;5048892;28;20076;-76
2021/12/10 06:11:34;;;;;;;32.35;10.55;;;2.10;99.90;;;;;;5052142;28;20123;-75
2021/12/10 06:14:01;;;;;;;29.70;11.15;;;2.10;99.90;;;;;;5051178;28;20056;-75
2021/12/10 06:16:27;;;;;;;38.28;11.77;;;2.10;99.90;;;;;;5052163;28;20044;-74
2021/12/10 06:18:53;;;;;;;21.55;8.18;;;2.10;99.90;;;;;;5052506;28;20393;-73
2021/12/10 06:21:19;;;;;;;32.35;11.98;;;2.10;99.90;;;;;;5050500;28;20048;-76
2021/12/10 06:23:45;;;;;;;34.38;10.85;;;2.00;99.90;;;;;;5051097;28;20567;-75
2021/12/10 06:26:11;;;;;;;24.92;6.75;;;2.00;99.90;;;;;;5050934;28;20056;-75
2021/12/10 06:28:38;;;;;;;29.00;10.13;;;2.00;99.90;;;;;;5050329;28;20119;-75
2021/12/10 06:31:05;;;;;;;31.90;9.82;;;1.90;99.90;;;;;;5051515;28;20386;-73
2021/12/10 06:33:31;;;;;;;43.60;16.65;;;1.90;99.90;;;;;;5051302;28;20065;-74
2021/12/10 06:36:03;;;;;;;33.00;12.45;;;1.90;99.90;;;;;;5052503;28;20401;-75
2021/12/10 06:38:29;;;;;;;41.15;14.10;;;1.90;99.90;;;;;;5055429;28;20110;-75
2021/12/10 06:40:55;;;;;;;52.33;19.52;;;1.80;99.90;;;;;;5053848;28;20047;-74
2021/12/10 06:43:22;;;;;;;30.52;13.23;;;1.80;99.90;;;;;;5054539;28;20040;-75
2021/12/10 06:45:49;;;;;;;43.92;18.38;;;1.90;99.90;;;;;;5053442;28;20050;-75
2021/12/10 06:48:15;;;;;;;30.25;12.15;;;1.80;99.90;;;;;;5055093;28;20048;-74
2021/12/10 06:50:46;;;;;;;34.63;15.65;;;1.80;99.90;;;;;;5052623;28;20045;-74
2021/12/10 06:53:12;;;;;;;33.67;12.98;;;1.80;99.90;;;;;;5052285;28;20111;-75
2021/12/10 06:55:38;;;;;;;16.33;6.90;;;1.90;99.90;;;;;;5049581;28;20486;-75
2021/12/10 06:58:06;;;;;;;40.15;17.38;;;1.80;99.90;;;;;;5050512;28;20136;-76
2021/12/10 07:00:42;;;;;;;32.17;13.18;;;1.80;99.90;;;;;;5050058;28;20052;-73
2021/12/10 07:03:10;;;;;;;35.05;14.95;;;1.80;99.90;;;;;;5050336;28;20045;-74
2021/12/10 07:05:36;;;;;;;32.05;14.20;;;1.70;99.90;;;;;;5049120;28;20081;-74
2021/12/10 07:08:02;;;;;;;33.10;12.18;;;1.70;99.90;;;;;;5051520;28;20095;-76
2021/12/10 07:10:28;;;;;;;37.08;14.15;;;1.60;99.90;;;;;;5047518;28;20048;-74
2021/12/10 07:12:54;;;;;;;33.42;11.80;;;1.50;99.90;;;;;;5033607;28;20151;-74
2021/12/10 07:15:20;;;;;;;23.10;8.10;;;1.60;99.90;;;;;;5032481;28;20041;-75
2021/12/10 07:17:50;;;;;;;27.10;10.23;;;1.60;99.90;;;;;;5049520;28;20047;-72
2021/12/10 07:20:20;;;;;;;26.67;9.95;;;1.60;99.90;;;;;;5048540;28;20041;-73
2021/12/10 07:22:46;;;;;;;30.77;10.15;;;1.60;99.90;;;;;;5051498;28;20056;-73
2021/12/10 07:25:12;;;;;;;33.53;11.18;;;1.50;99.90;;;;;;5049060;28;20045;-75
2021/12/10 07:27:38;;;;;;;32.85;11.55;;;1.50;99.90;;;;;;5051524;28;20053;-74
2021/12/10 07:30:06;;;;;;;33.90;12.18;;;1.60;99.90;;;;;;5050512;28;20044;-74
2021/12/10 07:32:32;;;;;;;25.50;8.80;;;1.50;99.90;;;;;;5050896;28;20131;-74
2021/12/10 07:34:58;;;;;;;31.50;8.02;;;1.50;99.90;;;;;;5049648;28;20060;-74
2021/12/10 07:37:24;;;;;;;39.72;13.13;;;1.60;99.90;;;;;;5049118;28;20041;-75
2021/12/10 07:39:50;;;;;;;36.90;13.02;;;1.60;99.90;;;;;;5049614;28;20526;-74
2021/12/10 07:42:16;;;;;;;32.40;9.98;;;1.50;99.90;;;;;;5049331;28;20591;-74
2021/12/10 07:44:42;;;;;;;26.13;9.70;;;1.50;99.90;;;;;;5050405;28;20098;-74
2021/12/10 07:47:12;;;;;;;31.80;9.45;;;1.50;99.90;;;;;;5049483;28;20045;-75
2021/12/10 07:49:42;;;;;;;26.83;9.07;;;1.50;99.90;;;;;;5049314;28;20037;-75
2021/12/10 07:52:16;;;;;;;31.60;10.40;;;1.50;99.90;;;;;;5030405;28;20049;-74
2021/12/10 07:54:46;;;;;;;27.23;8.45;;;1.50;99.90;;;;;;5048745;28;20121;-74
2021/12/10 07:57:13;;;;;;;30.60;9.48;;;1.50;99.90;;;;;;5034250;28;20051;-76
2021/12/10 07:59:39;;;;;;;19.38;5.82;;;1.60;99.90;;;;;;5033759;28;20099;-74
2021/12/10 08:02:06;;;;;;;25.08;8.32;;;1.60;99.90;;;;;;5043681;28;20049;-74
2021/12/10 08:04:32;;;;;;;28.52;9.88;;;1.70;99.90;;;;;;5052141;28;20037;-74
2021/12/10 08:06:58;;;;;;;28.50;9.07;;;1.60;99.90;;;;;;5053629;28;20186;-75
2021/12/10 08:09:25;;;;;;;25.83;8.95;;;1.60;99.90;;;;;;5052197;28;20057;-75
2021/12/10 08:11:51;;;;;;;19.95;7.05;;;1.60;99.90;;;;;;5051499;28;20452;-74
2021/12/10 08:14:17;;;;;;;21.85;8.98;;;1.70;99.90;;;;;;5035451;28;20045;-76
2021/12/10 08:16:43;;;;;;;26.33;8.40;;;1.70;99.90;;;;;;5054078;28;20045;-75
2021/12/10 08:19:11;;;;;;;26.50;6.75;;;1.70;99.90;;;;;;5053721;28;20052;-73
2021/12/10 08:21:37;;;;;;;27.17;8.18;;;1.80;99.90;;;;;;5053909;28;20072;-73
2021/12/10 08:24:03;;;;;;;32.03;10.07;;;1.90;99.90;;;;;;5052093;28;20167;-74
2021/12/10 08:26:29;;;;;;;24.42;7.93;;;1.90;99.90;;;;;;5053737;28;20150;-75
2021/12/10 08:28:55;;;;;;;28.05;10.65;;;1.90;99.90;;;;;;5053949;28;20095;-75
2021/12/10 08:31:21;;;;;;;31.77;10.27;;;1.90;99.90;;;;;;5035353;28;20198;-74
2021/12/10 08:33:49;;;;;;;22.05;7.15;;;1.90;99.90;;;;;;5047793;28;20552;-74
2021/12/10 08:36:17;;;;;;;;;;;2.00;99.90;;;;;;5054704;28;20052;-76
2021/12/10 08:38:44;;;;;;;23.40;8.10;;;2.20;99.90;;;;;;5054469;28;20011;-75
2021/12/10 08:41:14;;;;;;;27.35;9.02;;;2.20;99.90;;;;;;5053205;28;20060;-75
2021/12/10 08:43:41;;;;;;;21.42;5.97;;;2.10;99.90;;;;;;5054056;28;20068;-76
2021/12/10 08:46:08;;;;;;;28.15;8.85;;;2.20;99.90;;;;;;5053196;28;20052;-74
2021/12/10 08:48:35;;;;;;;24.05;9.55;;;2.30;99.90;;;;;;5052777;28;20524;-74
2021/12/10 08:51:06;;;;;;;26.25;8.45;;;2.30;99.90;;;;;;5053367;28;20088;-74
2021/12/10 08:53:32;;;;;;;18.52;7.10;;;2.20;99.90;;;;;;5053279;28;20043;-74
2021/12/10 08:55:58;;;;;;;29.33;9.13;;;2.30;99.90;;;;;;5051383;28;20041;-74
2021/12/10 08:58:25;;;;;;;24.52;8.45;;;2.30;99.90;;;;;;5052008;28;20060;-76
2021/12/10 09:00:58;;;;;;;22.35;8.48;;;2.30;99.90;;;;;;5054044;28;20420;-76
2021/12/10 09:03:24;;;;;;;27.52;9.55;;;2.30;99.90;;;;;;5053514;28;20106;-75
2021/12/10 09:05:50;;;;;;;20.42;8.25;;;2.40;99.90;;;;;;5052005;28;20034;-74
2021/12/10 09:08:16;;;;;;;25.17;8.50;;;2.40;99.90;;;;;;5052430;28;20041;-75
2021/12/10 09:10:45;;;;;;;24.05;7.95;;;2.50;99.90;;;;;;5049963;28;20041;-74
2021/12/10 09:13:14;;;;;;;21.92;8.27;;;2.50;99.90;;;;;;5053109;28;20120;-73
2021/12/10 09:15:42;;;;;;;26.65;8.63;;;2.50;99.90;;;;;;5050522;28;20895;-74
2021/12/10 09:18:09;;;;;;;58.72;21.17;;;2.50;99.90;;;;;;5053666;28;20110;-74
2021/12/10 09:20:39;;;;;;;25.23;8.45;;;2.50;99.90;;;;;;5052053;28;20473;-74
2021/12/10 09:23:10;;;;;;;19.25;7.95;;;2.50;99.90;;;;;;5053431;28;20048;-76
2021/12/10 09:25:36;;;;;;;18.80;5.68;;;2.70;99.90;;;;;;5033550;28;20136;-76
2021/12/10 09:28:03;;;;;;;28.90;7.95;;;2.80;99.90;;;;;;5054196;28;20143;-76
2021/12/10 09:30:31;;;;;;;21.50;8.38;;;2.80;99.90;;;;;;5053527;28;20132;-76
2021/12/10 09:32:58;;;;;;;14.70;5.05;;;2.90;99.90;;;;;;5053456;28;20142;-74
2021/12/10 09:35:26;;;;;;;19.08;5.65;;;2.90;99.90;;;;;;5051954;28;20442;-75
2021/12/10 09:37:53;;;;;;;20.48;6.63;;;3.00;99.90;;;;;;5052708;28;20103;-75
2021/12/10 09:40:23;;;;;;;16.08;5.13;;;3.00;99.90;;;;;;5048156;28;20041;-74
2021/12/10 09:42:49;;;;;;;14.02;4.68;;;3.10;99.90;;;;;;5052847;28;20048;-74
2021/12/10 09:45:18;;;;;;;12.15;4.57;;;3.20;99.90;;;;;;5051782;28;20072;-75
2021/12/10 09:47:44;;;;;;;15.93;5.35;;;3.20;99.90;;;;;;5050909;28;20195;-74
2021/12/10 09:50:11;;;;;;;23.15;6.68;;;3.20;99.90;;;;;;5050964;28;20157;-74
2021/12/10 09:52:38;;;;;;;18.33;5.55;;;3.20;99.90;;;;;;5050510;28;20121;-75
2021/12/10 09:55:07;;;;;;;15.05;4.93;;;3.30;99.90;;;;;;5044054;28;20397;-75
2021/12/10 09:57:34;;;;;;;12.40;4.03;;;3.40;99.90;;;;;;5030652;28;20053;-75
2021/12/10 10:00:06;;;;;;;13.75;3.80;;;3.40;99.90;;;;;;5013912;28;20064;-74
2021/12/10 10:02:32;;;;;;;14.93;5.13;;;3.40;99.90;;;;;;5048394;28;20048;-73
2021/12/10 10:04:58;;;;;;;15.25;4.47;;;3.50;99.90;;;;;;5050510;28;20040;-74
2021/12/10 10:07:28;;;;;;;20.27;7.70;;;3.50;99.90;;;;;;5050401;28;20106;-76
2021/12/10 10:09:57;;;;;;;10.98;3.33;;;3.50;99.90;;;;;;5049808;28;20045;-75
2021/12/10 10:12:31;;;;;;;18.08;5.50;;;3.60;99.90;;;;;;5033919;28;20041;-75
2021/12/10 10:15:00;;;;;;;14.13;4.97;;;3.70;99.90;;;;;;5051401;28;20446;-76
2021/12/10 10:17:26;;;;;;;14.63;3.35;;;3.70;99.90;;;;;;5051591;28;20044;-77
2021/12/10 10:19:53;;;;;;;19.75;4.78;;;3.70;99.90;;;;;;5016308;28;20045;-75
2021/12/10 10:22:23;;;;;;;14.40;5.23;;;3.80;99.90;;;;;;5051703;28;20045;-75
2021/12/10 10:24:50;;;;;;;16.15;5.30;;;3.80;99.90;;;;;;5049812;28;20303;-75
2021/12/10 10:27:23;;;;;;;10.70;4.17;;;3.90;99.90;;;;;;5051609;28;20123;-75
2021/12/10 10:29:56;;;;;;;9.50;2.72;;;3.90;99.90;;;;;;5047685;28;20323;-75
2021/12/10 10:32:28;;;;;;;15.18;5.07;;;4.00;99.90;;;;;;5050657;28;20053;-75
2021/12/10 10:35:01;;;;;;;17.17;4.72;;;4.00;99.90;;;;;;5033196;28;20055;-75
2021/12/10 10:37:28;;;;;;;15.07;5.15;;;4.00;99.90;;;;;;5051060;28;20049;-76
2021/12/10 10:39:55;;;;;;;16.17;5.10;;;4.00;99.90;;;;;;5048494;28;20047;-76
2021/12/10 10:42:25;;;;;;;15.50;5.10;;;4.10;99.90;;;;;;5049920;28;20527;-76
2021/12/10 10:44:52;;;;;;;9.82;3.22;;;4.10;99.90;;;;;;5049111;28;20138;-76
2021/12/10 10:47:23;;;;;;;14.18;4.53;;;4.20;99.90;;;;;;5051658;28;20120;-75
2021/12/10 10:50:00;;;;;;;15.88;5.47;;;4.20;99.90;;;;;;5050123;28;20071;-76
2021/12/10 10:52:36;;;;;;;15.63;4.70;;;4.20;99.90;;;;;;5051426;28;20124;-75
2021/12/10 10:55:11;;;;;;;17.98;6.10;;;4.30;99.90;;;;;;5048968;28;20049;-75
2021/12/10 10:57:46;;;;;;;15.65;5.90;;;4.30;99.90;;;;;;5049644;28;20459;-74
2021/12/10 11:00:45;;;;;;;19.27;5.93;;;4.30;99.90;;;;;;5049133;28;20057;-74
2021/12/10 11:03:19;;;;;;;16.17;4.82;;;4.20;99.90;;;;;;5050555;28;20057;-74
2021/12/10 11:05:48;;;;;;;17.05;4.80;;;4.20;99.90;;;;;;5050156;28;20068;-76
2021/12/10 11:08:31;;;;;;;11.35;3.67;;;4.20;99.90;;;;;;5050257;28;20055;-75
2021/12/10 11:11:23;;;;;;;13.10;3.88;;;4.30;99.90;;;;;;5049034;28;20056;-75
2021/12/10 11:13:59;;;;;;;16.30;4.63;;;4.40;99.90;;;;;;5032936;28;20121;-75
2021/12/10 11:16:28;;;;;;;13.27;4.03;;;4.40;99.90;;;;;;5045952;28;20138;-76
2021/12/10 11:18:58;;;;;;;16.52;4.40;;;4.50;99.90;;;;;;5030676;28;20060;-76
2021/12/10 11:21:47;;;;;;;16.13;5.78;;;4.50;99.90;;;;;;5049653;28;20068;-75
2021/12/10 11:24:24;;;;;;;22.33;6.35;;;4.50;99.90;;;;;;5049871;28;20049;-76
2021/12/10 11:27:02;;;;;;;10.52;3.50;;;4.60;99.90;;;;;;5050403;28;20338;-74
2021/12/10 11:29:36;;;;;;;14.25;3.78;;;4.60;99.90;;;;;;5052367;28;20099;-75
2021/12/10 11:32:09;;;;;;;12.95;3.28;;;4.70;99.90;;;;;;5054599;28;20049;-75
2021/12/10 11:34:45;;;;;;;11.73;3.35;;;4.70;99.90;;;;;;5035946;28;20067;-76
2021/12/10 11:37:12;;;;;;;15.35;6.07;;;4.70;99.90;;;;;;5055018;28;20056;-79
2021/12/10 11:39:52;;;;;;;11.27;3.30;;;4.70;99.90;;;;;;5052402;28;20509;-76
2021/12/10 11:42:42;;;;;;;9.52;3.35;;;4.70;99.90;;;;;;5054434;28;20045;-74
2021/12/10 11:45:31;;;;;;;13.43;3.65;;;4.60;99.90;;;;;;5053808;28;20095;-74
2021/12/10 11:48:11;;;;;;;25.92;11.25;;;4.70;99.90;;;;;;5036022;28;20436;-74
2021/12/10 11:50:45;;;;;;;21.05;9.40;;;4.70;99.90;;;;;;5053142;28;20549;-75
2021/12/10 11:53:17;;;;;;;15.68;4.55;;;4.70;99.90;;;;;;5054552;28;20049;-76
2021/12/10 11:56:03;;;;;;;16.42;5.10;;;4.80;99.90;;;;;;5049607;28;20109;-75
2021/12/10 11:58:29;;;;;;;16.65;6.43;;;4.80;99.90;;;;;;5036453;28;20049;-76
2021/12/10 12:00:55;;;;;;;18.00;5.95;;;4.80;99.90;;;;;;5052197;28;20055;-76
2021/12/10 12:03:27;;;;;;;9.40;2.53;;;4.80;99.90;;;;;;5054445;28;20041;-75
2021/12/10 12:05:53;;;;;;;9.35;3.05;;;4.80;99.90;;;;;;5053567;28;20057;-74
2021/12/10 12:08:20;;;;;;;9.68;2.20;;;4.80;99.90;;;;;;5052878;28;20051;-75
2021/12/10 12:11:00;;;;;;;10.57;3.20;;;4.80;99.90;;;;;;5052268;28;20045;-76
2021/12/10 12:13:38;;;;;;;12.55;4.13;;;5.00;99.90;;;;;;5052585;28;20121;-76
2021/12/10 12:16:14;;;;;;;11.65;2.97;;;4.80;99.90;;;;;;5053556;28;20114;-75
2021/12/10 12:18:52;;;;;;;9.93;3.03;;;4.90;99.90;;;;;;5053741;28;20497;-75
2021/12/10 12:27:14;;;;;;;16.58;6.03;;;4.80;99.90;;;;;;5060079;28;20041;-76
2021/12/10 12:29:48;;;;;;;12.18;2.53;;;4.80;99.90;;;;;;5058075;28;20200;-75
2021/12/10 12:32:19;;;;;;;12.75;3.03;;;4.80;99.90;;;;;;5054252;28;20080;-75
2021/12/10 12:34:46;;;;;;;14.25;4.18;;;4.90;99.90;;;;;;5034699;28;20130;-74
2021/12/10 12:37:14;;;;;;;15.35;4.88;;;5.00;99.90;;;;;;5053676;28;20041;-75
2021/12/10 12:39:47;;;;;;;10.20;2.97;;;5.00;99.90;;;;;;5049826;28;20048;-75
2021/12/10 12:42:25;;;;;;;14.13;4.68;;;5.00;99.90;;;;;;5055356;28;20118;-74
2021/12/10 12:44:57;;;;;;;11.63;4.20;;;5.00;99.90;;;;;;5051732;28;20056;-76
2021/12/10 12:47:29;;;;;;;16.17;5.65;;;5.00;99.90;;;;;;5058318;28;20492;-75
2021/12/10 12:50:07;;;;;;;10.23;3.08;;;5.10;99.90;;;;;;5057664;28;20044;-76
2021/12/10 12:52:57;;;;;;;11.05;2.95;;;5.00;99.90;;;;;;5040888;28;20049;-76
2021/12/10 12:55:32;;;;;;;12.85;2.40;;;5.00;99.90;;;;;;5056108;28;20098;-74
2021/12/10 12:58:00;;;;;;;13.07;3.40;;;5.00;99.90;;;;;;5061356;28;20119;-75
2021/12/10 13:00:29;;;;;;;8.10;2.55;;;5.00;99.90;;;;;;5061355;28;20048;-75
2021/12/10 13:02:59;;;;;;;13.90;3.75;;;5.00;99.90;;;;;;5057396;28;20319;-76
2021/12/10 13:05:41;;;;;;;14.77;2.65;;;4.90;99.90;;;;;;5071011;28;20049;-75
2021/12/10 13:08:17;;;;;;;8.93;2.20;;;5.10;99.90;;;;;;5060472;28;20083;-75
2021/12/10 13:10:50;;;;;;;14.27;3.17;;;5.10;99.90;;;;;;5055245;28;20041;-76
2021/12/10 13:13:29;;;;;;;10.82;3.67;;;5.10;99.90;;;;;;5057309;28;20484;-74
2021/12/10 13:15:55;;;;;;;14.50;4.05;;;5.20;99.90;;;;;;5068317;28;20484;-76
2021/12/10 13:18:21;;;;;;;11.43;2.83;;;5.00;99.90;;;;;;5052769;28;20178;-76
2021/12/10 13:20:52;;;;;;;10.68;3.08;;;5.10;99.90;;;;;;5053362;28;20053;-76
2021/12/10 13:23:24;;;;;;;11.93;2.40;;;5.10;99.90;;;;;;5053108;28;20140;-76
2021/12/10 13:25:54;;;;;;;10.93;2.67;;;5.10;99.90;;;;;;5048033;28;20041;-75
2021/12/10 13:28:20;;;;;;;9.15;1.92;;;5.00;99.90;;;;;;5051985;28;20059;-76
2021/12/10 13:30:56;;;;;;;14.18;2.90;;;5.10;99.90;;;;;;5052097;28;20131;-77
2021/12/10 13:33:27;;;;;;;11.02;2.78;;;5.00;99.90;;;;;;5020046;28;20057;-77
2021/12/10 13:35:55;;;;;;;10.85;3.00;;;5.10;99.90;;;;;;5051667;28;20055;-76
2021/12/10 13:38:22;;;;;;;18.13;4.63;;;5.00;99.90;;;;;;5053396;28;20072;-76
2021/12/10 13:40:50;;;;;;;12.57;3.80;;;5.00;99.90;;;;;;5050570;28;20084;-77
2021/12/10 13:43:16;;;;;;;15.27;4.28;;;4.90;99.90;;;;;;5035663;28;20052;-76
2021/12/10 13:45:46;;;;;;;16.90;4.25;;;5.00;99.90;;;;;;5050988;28;20045;-76